sensor_id;sensor_type;location;lat;lon;timestamp;pressure;altitude;pressure_sealevel;temperature;humidity
65010;BME280;51556;50.002;22.014;2023-02-03T00:00:10;99422.61;;;2.57;73.56
65010;BME280;51556;50.002;22.014;2023-02-03T00:02:35;99429.20;;;2.55;73.42
65010;BME280;51556;50.002;22.014;2023-02-03T00:05:01;99432.34;;;2.55;73.23
65010;BME280;51556;50.002;22.014;2023-02-03T00:07:27;99439.30;;;2.57;73.59
65010;BME280;51556;50.002;22.014;2023-02-03T00:09:55;99443.83;;;2.59;73.64
65010;BME280;51556;50.002;22.014;2023-02-03T00:12:20;99449.39;;;2.61;73.72
65010;BME280;51556;50.002;22.014;2023-02-03T00:14:46;99453.38;;;2.59;73.16
65010;BME280;51556;50.002;22.014;2023-02-03T00:17:12;99452.68;;;2.56;73.18
65010;BME280;51556;50.002;22.014;2023-02-03T00:19:39;99453.55;;;2.57;73.19
65010;BME280;51556;50.002;22.014;2023-02-03T00:22:04;99461.36;;;2.55;73.04
65010;BME280;51556;50.002;22.014;2023-02-03T00:24:30;99468.83;;;2.55;73.03
65010;BME280;51556;50.002;22.014;2023-02-03T00:26:55;99474.05;;;2.56;73.12
65010;BME280;51556;50.002;22.014;2023-02-03T00:29:21;99477.69;;;2.54;73.01
65010;BME280;51556;50.002;22.014;2023-02-03T00:31:50;99479.56;;;2.51;72.85
65010;BME280;51556;50.002;22.014;2023-02-03T00:34:16;99484.73;;;2.46;73.09
65010;BME280;51556;50.002;22.014;2023-02-03T00:36:42;99488.89;;;2.45;73.49
65010;BME280;51556;50.002;22.014;2023-02-03T00:39:07;99495.88;;;2.49;73.36
65010;BME280;51556;50.002;22.014;2023-02-03T00:41:32;99499.34;;;2.48;73.13
65010;BME280;51556;50.002;22.014;2023-02-03T00:43:58;99503.53;;;2.50;73.31
65010;BME280;51556;50.002;22.014;2023-02-03T00:46:23;99504.78;;;2.53;73.51
65010;BME280;51556;50.002;22.014;2023-02-03T00:48:49;99504.10;;;2.55;73.14
65010;BME280;51556;50.002;22.014;2023-02-03T00:51:14;99508.80;;;2.55;73.37
65010;BME280;51556;50.002;22.014;2023-02-03T00:53:40;99503.92;;;2.55;73.49
65010;BME280;51556;50.002;22.014;2023-02-03T00:56:05;99501.70;;;2.59;73.28
65010;BME280;51556;50.002;22.014;2023-02-03T00:58:37;99504.98;;;2.61;73.39
65010;BME280;51556;50.002;22.014;2023-02-03T01:01:02;99506.74;;;2.60;73.08
65010;BME280;51556;50.002;22.014;2023-02-03T01:03:28;99512.42;;;2.52;73.32
65010;BME280;51556;50.002;22.014;2023-02-03T01:05:53;99519.10;;;2.44;74.02
65010;BME280;51556;50.002;22.014;2023-02-03T01:08:19;99521.59;;;2.32;74.75
65010;BME280;51556;50.002;22.014;2023-02-03T01:10:44;99524.12;;;2.25;74.82
65010;BME280;51556;50.002;22.014;2023-02-03T01:13:10;99526.17;;;2.20;74.76
65010;BME280;51556;50.002;22.014;2023-02-03T01:15:35;99524.73;;;2.14;75.03
65010;BME280;51556;50.002;22.014;2023-02-03T01:18:01;99531.30;;;2.13;74.86
65010;BME280;51556;50.002;22.014;2023-02-03T01:20:27;99534.77;;;2.13;74.81
65010;BME280;51556;50.002;22.014;2023-02-03T01:22:52;99529.56;;;2.13;75.12
65010;BME280;51556;50.002;22.014;2023-02-03T01:25:18;99532.90;;;2.16;74.57
65010;BME280;51556;50.002;22.014;2023-02-03T01:27:43;99532.90;;;2.15;74.80
65010;BME280;51556;50.002;22.014;2023-02-03T01:30:09;99542.23;;;2.12;74.20
65010;BME280;51556;50.002;22.014;2023-02-03T01:32:35;99534.92;;;2.11;74.60
65010;BME280;51556;50.002;22.014;2023-02-03T01:35:00;99543.25;;;2.10;74.38
65010;BME280;51556;50.002;22.014;2023-02-03T01:37:26;99550.17;;;2.09;74.27
65010;BME280;51556;50.002;22.014;2023-02-03T01:39:51;99553.99;;;2.08;74.46
65010;BME280;51556;50.002;22.014;2023-02-03T01:42:17;99555.90;;;2.08;74.36
65010;BME280;51556;50.002;22.014;2023-02-03T01:44:45;99552.76;;;2.07;74.37
65010;BME280;51556;50.002;22.014;2023-02-03T01:47:51;99557.12;;;2.09;74.34
65010;BME280;51556;50.002;22.014;2023-02-03T01:50:23;99559.23;;;2.11;74.25
65010;BME280;51556;50.002;22.014;2023-02-03T01:52:53;99558.94;;;2.15;74.19
65010;BME280;51556;50.002;22.014;2023-02-03T01:55:25;99559.34;;;2.20;74.21
65010;BME280;51556;50.002;22.014;2023-02-03T01:58:00;99567.70;;;2.23;74.11
65010;BME280;51556;50.002;22.014;2023-02-03T02:00:27;99570.98;;;2.20;73.89
65010;BME280;51556;50.002;22.014;2023-02-03T02:02:53;99564.01;;;2.18;74.09
65010;BME280;51556;50.002;22.014;2023-02-03T02:05:30;99562.61;;;2.17;73.96
65010;BME280;51556;50.002;22.014;2023-02-03T02:07:58;99557.42;;;2.18;74.01
65010;BME280;51556;50.002;22.014;2023-02-03T02:10:24;99558.14;;;2.22;74.03
65010;BME280;51556;50.002;22.014;2023-02-03T02:12:50;99562.15;;;2.25;73.69
65010;BME280;51556;50.002;22.014;2023-02-03T02:15:18;99564.41;;;2.24;73.80
65010;BME280;51556;50.002;22.014;2023-02-03T02:20:44;99564.61;;;2.11;73.61
65010;BME280;51556;50.002;22.014;2023-02-03T02:29:06;99570.87;;;2.11;73.81
65010;BME280;51556;50.002;22.014;2023-02-03T02:31:42;99579.21;;;2.11;74.00
65010;BME280;51556;50.002;22.014;2023-02-03T02:37:42;99574.81;;;2.21;74.28
65010;BME280;51556;50.002;22.014;2023-02-03T02:40:22;99572.06;;;2.26;74.13
65010;BME280;51556;50.002;22.014;2023-02-03T02:43:09;99574.56;;;2.32;74.44
65010;BME280;51556;50.002;22.014;2023-02-03T02:45:55;99586.88;;;2.30;74.95
65010;BME280;51556;50.002;22.014;2023-02-03T02:48:28;99598.86;;;2.13;75.13
65010;BME280;51556;50.002;22.014;2023-02-03T02:50:57;99603.30;;;1.94;75.24
65010;BME280;51556;50.002;22.014;2023-02-03T02:53:28;99608.06;;;1.85;75.73
65010;BME280;51556;50.002;22.014;2023-02-03T02:55:57;99607.30;;;1.82;75.42
65010;BME280;51556;50.002;22.014;2023-02-03T02:58:28;99600.41;;;1.72;75.58
65010;BME280;51556;50.002;22.014;2023-02-03T03:00:55;99594.73;;;1.64;75.20
65010;BME280;51556;50.002;22.014;2023-02-03T03:03:22;99592.90;;;1.57;75.33
65010;BME280;51556;50.002;22.014;2023-02-03T03:05:54;99592.55;;;1.57;75.61
65010;BME280;51556;50.002;22.014;2023-02-03T03:08:36;99597.29;;;1.60;75.42
65010;BME280;51556;50.002;22.014;2023-02-03T03:11:04;99597.97;;;1.60;75.20
65010;BME280;51556;50.002;22.014;2023-02-03T03:13:42;99598.93;;;1.54;75.55
65010;BME280;51556;50.002;22.014;2023-02-03T03:16:11;99601.13;;;1.49;75.50
65010;BME280;51556;50.002;22.014;2023-02-03T03:18:45;99607.23;;;1.53;75.69
65010;BME280;51556;50.002;22.014;2023-02-03T03:21:16;99609.44;;;1.60;75.52
65010;BME280;51556;50.002;22.014;2023-02-03T03:23:44;99608.30;;;1.65;75.43
65010;BME280;51556;50.002;22.014;2023-02-03T03:26:31;99604.01;;;1.68;75.24
65010;BME280;51556;50.002;22.014;2023-02-03T03:29:13;99607.58;;;1.76;75.31
65010;BME280;51556;50.002;22.014;2023-02-03T03:31:42;99604.02;;;1.81;75.11
65010;BME280;51556;50.002;22.014;2023-02-03T03:34:10;99602.67;;;1.84;75.02
65010;BME280;51556;50.002;22.014;2023-02-03T03:41:41;99605.92;;;1.96;74.75
65010;BME280;51556;50.002;22.014;2023-02-03T03:44:12;99604.57;;;1.98;74.59
65010;BME280;51556;50.002;22.014;2023-02-03T03:46:49;99603.90;;;2.00;74.07
65010;BME280;51556;50.002;22.014;2023-02-03T03:49:17;99602.36;;;2.02;74.25
65010;BME280;51556;50.002;22.014;2023-02-03T03:52:00;99601.02;;;2.06;73.87
65010;BME280;51556;50.002;22.014;2023-02-03T03:54:29;99596.15;;;2.05;73.15
65010;BME280;51556;50.002;22.014;2023-02-03T03:57:27;99589.02;;;2.04;73.10
65010;BME280;51556;50.002;22.014;2023-02-03T03:59:55;99593.84;;;2.02;73.39
65010;BME280;51556;50.002;22.014;2023-02-03T04:02:21;99593.70;;;2.04;73.26
65010;BME280;51556;50.002;22.014;2023-02-03T04:04:47;99597.15;;;2.02;72.48
65010;BME280;51556;50.002;22.014;2023-02-03T04:07:14;99597.98;;;1.99;72.86
65010;BME280;51556;50.002;22.014;2023-02-03T04:09:40;99597.54;;;1.92;72.33
65010;BME280;51556;50.002;22.014;2023-02-03T04:12:22;99596.92;;;1.83;72.25
65010;BME280;51556;50.002;22.014;2023-02-03T04:14:47;99593.72;;;1.77;72.46
65010;BME280;51556;50.002;22.014;2023-02-03T04:17:13;99597.11;;;1.71;71.83
65010;BME280;51556;50.002;22.014;2023-02-03T04:19:38;99604.30;;;1.65;72.10
65010;BME280;51556;50.002;22.014;2023-02-03T04:22:04;99603.95;;;1.65;72.40
65010;BME280;51556;50.002;22.014;2023-02-03T04:24:29;99606.59;;;1.67;72.18
65010;BME280;51556;50.002;22.014;2023-02-03T04:26:55;99604.70;;;1.68;72.43
65010;BME280;51556;50.002;22.014;2023-02-03T04:29:20;99607.48;;;1.69;71.56
65010;BME280;51556;50.002;22.014;2023-02-03T04:31:45;99605.86;;;1.65;71.47
65010;BME280;51556;50.002;22.014;2023-02-03T04:34:11;99607.02;;;1.61;71.38
65010;BME280;51556;50.002;22.014;2023-02-03T04:36:36;99608.71;;;1.58;71.06
65010;BME280;51556;50.002;22.014;2023-02-03T04:39:02;99607.25;;;1.53;70.73
65010;BME280;51556;50.002;22.014;2023-02-03T04:41:27;99604.77;;;1.48;70.83
65010;BME280;51556;50.002;22.014;2023-02-03T04:43:53;99603.87;;;1.46;70.65
65010;BME280;51556;50.002;22.014;2023-02-03T04:46:18;99608.50;;;1.43;70.23
65010;BME280;51556;50.002;22.014;2023-02-03T04:48:44;99608.79;;;1.39;70.69
65010;BME280;51556;50.002;22.014;2023-02-03T04:51:09;99603.90;;;1.37;70.22
65010;BME280;51556;50.002;22.014;2023-02-03T04:53:35;99605.45;;;1.37;70.38
65010;BME280;51556;50.002;22.014;2023-02-03T04:56:01;99610.33;;;1.37;70.36
65010;BME280;51556;50.002;22.014;2023-02-03T04:58:26;99610.98;;;1.35;70.63
65010;BME280;51556;50.002;22.014;2023-02-03T05:00:53;99612.95;;;1.39;70.72
65010;BME280;51556;50.002;22.014;2023-02-03T05:03:19;99613.79;;;1.37;69.82
65010;BME280;51556;50.002;22.014;2023-02-03T05:05:44;99613.58;;;1.34;70.11
65010;BME280;51556;50.002;22.014;2023-02-03T05:08:10;99616.68;;;1.33;70.31
65010;BME280;51556;50.002;22.014;2023-02-03T05:10:35;99616.09;;;1.29;70.07
65010;BME280;51556;50.002;22.014;2023-02-03T05:13:01;99615.56;;;1.28;70.60
65010;BME280;51556;50.002;22.014;2023-02-03T05:15:26;99614.67;;;1.27;70.03
65010;BME280;51556;50.002;22.014;2023-02-03T05:17:53;99614.06;;;1.21;70.04
65010;BME280;51556;50.002;22.014;2023-02-03T05:23:31;99615.98;;;1.23;70.27
65010;BME280;51556;50.002;22.014;2023-02-03T05:25:57;99624.31;;;1.13;70.21
65010;BME280;51556;50.002;22.014;2023-02-03T05:28:23;99625.73;;;1.15;70.37
65010;BME280;51556;50.002;22.014;2023-02-03T05:30:48;99623.68;;;1.05;70.14
65010;BME280;51556;50.002;22.014;2023-02-03T05:33:14;99628.03;;;1.06;70.50
65010;BME280;51556;50.002;22.014;2023-02-03T05:35:39;99624.86;;;1.03;70.29
65010;BME280;51556;50.002;22.014;2023-02-03T05:38:04;99625.77;;;1.05;70.28
65010;BME280;51556;50.002;22.014;2023-02-03T05:40:30;99625.84;;;0.99;70.28
65010;BME280;51556;50.002;22.014;2023-02-03T05:43:14;99628.42;;;0.98;70.49
65010;BME280;51556;50.002;22.014;2023-02-03T05:45:40;99627.80;;;1.02;70.69
65010;BME280;51556;50.002;22.014;2023-02-03T05:48:05;99623.93;;;1.09;70.61
65010;BME280;51556;50.002;22.014;2023-02-03T05:50:34;99627.79;;;1.14;69.95
65010;BME280;51556;50.002;22.014;2023-02-03T05:53:02;99633.52;;;1.14;70.14
65010;BME280;51556;50.002;22.014;2023-02-03T05:55:29;99640.36;;;1.19;70.37
65010;BME280;51556;50.002;22.014;2023-02-03T05:57:55;99643.54;;;1.22;69.92
65010;BME280;51556;50.002;22.014;2023-02-03T06:00:21;99646.54;;;1.14;69.47
65010;BME280;51556;50.002;22.014;2023-02-03T06:03:00;99645.62;;;1.11;69.47
65010;BME280;51556;50.002;22.014;2023-02-03T06:05:30;99650.48;;;1.11;69.36
65010;BME280;51556;50.002;22.014;2023-02-03T06:07:56;99648.06;;;1.11;69.78
65010;BME280;51556;50.002;22.014;2023-02-03T06:10:22;99645.14;;;1.14;69.77
65010;BME280;51556;50.002;22.014;2023-02-03T06:12:48;99651.62;;;1.18;69.63
65010;BME280;51556;50.002;22.014;2023-02-03T06:15:14;99648.73;;;1.21;69.49
65010;BME280;51556;50.002;22.014;2023-02-03T06:17:43;99639.04;;;1.22;69.49
65010;BME280;51556;50.002;22.014;2023-02-03T06:20:10;99636.70;;;1.27;69.82
65010;BME280;51556;50.002;22.014;2023-02-03T06:22:36;99639.95;;;1.35;69.89
65010;BME280;51556;50.002;22.014;2023-02-03T06:25:01;99639.15;;;1.39;69.30
65010;BME280;51556;50.002;22.014;2023-02-03T06:27:27;99635.67;;;1.39;69.13
65010;BME280;51556;50.002;22.014;2023-02-03T06:29:52;99635.17;;;1.41;68.91
65010;BME280;51556;50.002;22.014;2023-02-03T06:32:18;99633.31;;;1.43;68.48
65010;BME280;51556;50.002;22.014;2023-02-03T06:34:43;99629.52;;;1.44;68.16
65010;BME280;51556;50.002;22.014;2023-02-03T06:37:09;99629.71;;;1.45;67.09
65010;BME280;51556;50.002;22.014;2023-02-03T06:39:34;99627.14;;;1.49;67.64
65010;BME280;51556;50.002;22.014;2023-02-03T06:42:03;99623.66;;;1.60;67.78
65010;BME280;51556;50.002;22.014;2023-02-03T06:44:31;99621.73;;;1.71;67.19
65010;BME280;51556;50.002;22.014;2023-02-03T06:46:56;99616.19;;;1.71;67.10
65010;BME280;51556;50.002;22.014;2023-02-03T06:49:23;99618.13;;;1.73;66.95
65010;BME280;51556;50.002;22.014;2023-02-03T06:51:59;99615.16;;;1.72;66.46
65010;BME280;51556;50.002;22.014;2023-02-03T06:54:39;99610.73;;;1.65;66.41
65010;BME280;51556;50.002;22.014;2023-02-03T06:57:04;99612.17;;;1.69;67.02
65010;BME280;51556;50.002;22.014;2023-02-03T06:59:30;99610.33;;;1.74;66.77
65010;BME280;51556;50.002;22.014;2023-02-03T07:01:55;99604.02;;;1.81;67.04
65010;BME280;51556;50.002;22.014;2023-02-03T07:04:21;99602.72;;;1.90;66.78
65010;BME280;51556;50.002;22.014;2023-02-03T07:06:47;99599.80;;;1.93;66.45
65010;BME280;51556;50.002;22.014;2023-02-03T07:09:12;99594.13;;;1.97;66.17
65010;BME280;51556;50.002;22.014;2023-02-03T07:11:38;99592.06;;;1.98;66.15
65010;BME280;51556;50.002;22.014;2023-02-03T07:14:03;99593.49;;;2.01;66.26
65010;BME280;51556;50.002;22.014;2023-02-03T07:16:29;99594.02;;;2.01;66.16
65010;BME280;51556;50.002;22.014;2023-02-03T07:18:55;99593.03;;;2.06;65.96
65010;BME280;51556;50.002;22.014;2023-02-03T07:21:21;99589.42;;;2.09;65.65
65010;BME280;51556;50.002;22.014;2023-02-03T07:23:47;99592.52;;;2.07;64.73
65010;BME280;51556;50.002;22.014;2023-02-03T07:26:13;99586.92;;;2.04;65.07
65010;BME280;51556;50.002;22.014;2023-02-03T07:28:39;99585.20;;;2.05;64.95
65010;BME280;51556;50.002;22.014;2023-02-03T07:31:04;99584.89;;;2.07;64.66
65010;BME280;51556;50.002;22.014;2023-02-03T07:33:32;99578.33;;;2.10;64.98
65010;BME280;51556;50.002;22.014;2023-02-03T07:35:58;99572.34;;;2.17;65.53
65010;BME280;51556;50.002;22.014;2023-02-03T07:38:25;99576.56;;;2.24;64.41
65010;BME280;51556;50.002;22.014;2023-02-03T07:40:52;99577.34;;;2.14;63.23
65010;BME280;51556;50.002;22.014;2023-02-03T07:43:17;99577.06;;;2.07;64.31
65010;BME280;51556;50.002;22.014;2023-02-03T07:45:43;99570.12;;;2.07;64.35
65010;BME280;51556;50.002;22.014;2023-02-03T07:48:09;99568.14;;;2.01;63.27
65010;BME280;51556;50.002;22.014;2023-02-03T07:50:34;99562.30;;;1.91;63.76
65010;BME280;51556;50.002;22.014;2023-02-03T07:53:00;99561.59;;;1.76;63.97
65010;BME280;51556;50.002;22.014;2023-02-03T07:55:26;99557.52;;;1.70;64.70
65010;BME280;51556;50.002;22.014;2023-02-03T07:57:53;99549.52;;;1.69;65.39
65010;BME280;51556;50.002;22.014;2023-02-03T08:00:19;99541.90;;;1.70;65.39
65010;BME280;51556;50.002;22.014;2023-02-03T08:02:45;99535.97;;;1.68;65.66
65010;BME280;51556;50.002;22.014;2023-02-03T08:05:11;99535.80;;;1.67;65.94
65010;BME280;51556;50.002;22.014;2023-02-03T08:07:38;99536.92;;;1.75;66.24
65010;BME280;51556;50.002;22.014;2023-02-03T08:10:04;99537.57;;;1.85;66.17
65010;BME280;51556;50.002;22.014;2023-02-03T08:12:30;99537.10;;;1.90;65.60
65010;BME280;51556;50.002;22.014;2023-02-03T08:14:55;99535.21;;;1.92;65.67
65010;BME280;51556;50.002;22.014;2023-02-03T08:17:21;99531.14;;;1.99;65.86
65010;BME280;51556;50.002;22.014;2023-02-03T08:19:46;99530.85;;;2.05;65.86
65010;BME280;51556;50.002;22.014;2023-02-03T08:22:12;99525.30;;;2.05;64.72
65010;BME280;51556;50.002;22.014;2023-02-03T08:24:44;99515.70;;;2.01;65.35
65010;BME280;51556;50.002;22.014;2023-02-03T08:27:12;99513.28;;;2.01;65.58
65010;BME280;51556;50.002;22.014;2023-02-03T08:29:37;99510.58;;;2.09;65.64
65010;BME280;51556;50.002;22.014;2023-02-03T08:32:03;99507.21;;;2.17;65.79
65010;BME280;51556;50.002;22.014;2023-02-03T08:34:29;99500.48;;;2.23;65.58
65010;BME280;51556;50.002;22.014;2023-02-03T08:36:54;99499.63;;;2.25;65.16
65010;BME280;51556;50.002;22.014;2023-02-03T08:39:20;99505.73;;;2.28;64.53
65010;BME280;51556;50.002;22.014;2023-02-03T08:41:45;99500.52;;;2.27;64.00
65010;BME280;51556;50.002;22.014;2023-02-03T08:44:11;99499.80;;;2.24;63.23
65010;BME280;51556;50.002;22.014;2023-02-03T08:46:37;99497.99;;;2.16;63.03
65010;BME280;51556;50.002;22.014;2023-02-03T08:49:08;99490.03;;;2.18;62.41
65010;BME280;51556;50.002;22.014;2023-02-03T08:51:33;99489.15;;;2.02;61.82
65010;BME280;51556;50.002;22.014;2023-02-03T08:53:59;99488.89;;;1.94;62.37
65010;BME280;51556;50.002;22.014;2023-02-03T08:56:24;99482.42;;;1.90;62.74
65010;BME280;51556;50.002;22.014;2023-02-03T08:58:51;99483.14;;;1.92;63.26
65010;BME280;51556;50.002;22.014;2023-02-03T09:01:16;99483.99;;;1.90;62.86
65010;BME280;51556;50.002;22.014;2023-02-03T09:03:43;99486.43;;;1.91;63.01
65010;BME280;51556;50.002;22.014;2023-02-03T09:06:09;99483.70;;;1.95;63.01
65010;BME280;51556;50.002;22.014;2023-02-03T09:08:37;99478.35;;;1.98;62.07
65010;BME280;51556;50.002;22.014;2023-02-03T09:11:10;99470.42;;;2.05;62.23
65010;BME280;51556;50.002;22.014;2023-02-03T09:13:36;99463.54;;;2.10;62.69
65010;BME280;51556;50.002;22.014;2023-02-03T09:16:02;99458.96;;;2.04;61.30
65010;BME280;51556;50.002;22.014;2023-02-03T09:18:27;99451.16;;;2.06;61.85
65010;BME280;51556;50.002;22.014;2023-02-03T09:20:59;99448.45;;;2.10;62.43
65010;BME280;51556;50.002;22.014;2023-02-03T09:23:26;99445.40;;;2.19;62.53
65010;BME280;51556;50.002;22.014;2023-02-03T09:25:51;99441.94;;;2.19;61.91
65010;BME280;51556;50.002;22.014;2023-02-03T09:28:17;99438.58;;;2.14;61.08
65010;BME280;51556;50.002;22.014;2023-02-03T09:30:43;99436.36;;;2.17;61.64
65010;BME280;51556;50.002;22.014;2023-02-03T09:33:08;99436.22;;;2.21;61.26
65010;BME280;51556;50.002;22.014;2023-02-03T09:35:34;99428.06;;;2.23;60.91
65010;BME280;51556;50.002;22.014;2023-02-03T09:37:59;99424.59;;;2.26;60.73
65010;BME280;51556;50.002;22.014;2023-02-03T09:40:32;99419.40;;;2.27;60.47
65010;BME280;51556;50.002;22.014;2023-02-03T09:45:40;99417.64;;;2.43;61.40
65010;BME280;51556;50.002;22.014;2023-02-03T09:48:13;99415.04;;;2.44;60.38
65010;BME280;51556;50.002;22.014;2023-02-03T09:50:42;99404.73;;;2.37;59.89
65010;BME280;51556;50.002;22.014;2023-02-03T09:53:28;99403.18;;;2.38;61.03
65010;BME280;51556;50.002;22.014;2023-02-03T09:55:56;99395.78;;;2.48;60.90
65010;BME280;51556;50.002;22.014;2023-02-03T09:58:23;99395.64;;;2.51;60.21
65010;BME280;51556;50.002;22.014;2023-02-03T10:00:55;99390.92;;;2.48;59.37
65010;BME280;51556;50.002;22.014;2023-02-03T10:06:30;99376.34;;;2.50;60.55
65010;BME280;51556;50.002;22.014;2023-02-03T10:14:57;99361.89;;;2.75;59.13
65010;BME280;51556;50.002;22.014;2023-02-03T10:21:13;99348.73;;;2.83;59.71
65010;BME280;51556;50.002;22.014;2023-02-03T10:23:21;99342.81;;;2.82;59.78
65010;BME280;51556;50.002;22.014;2023-02-03T10:25:53;99342.33;;;2.88;60.51
65010;BME280;51556;50.002;22.014;2023-02-03T10:28:25;99340.27;;;2.94;60.15
65010;BME280;51556;50.002;22.014;2023-02-03T10:31:03;99335.41;;;2.98;59.70
65010;BME280;51556;50.002;22.014;2023-02-03T10:33:32;99328.83;;;3.06;60.25
65010;BME280;51556;50.002;22.014;2023-02-03T10:36:25;99322.23;;;3.08;59.19
65010;BME280;51556;50.002;22.014;2023-02-03T10:39:02;99314.77;;;3.10;59.36
65010;BME280;51556;50.002;22.014;2023-02-03T10:41:29;99307.83;;;3.16;60.09
65010;BME280;51556;50.002;22.014;2023-02-03T10:43:57;99304.38;;;3.22;60.04
65010;BME280;51556;50.002;22.014;2023-02-03T10:46:32;99297.09;;;3.30;59.77
65010;BME280;51556;50.002;22.014;2023-02-03T10:48:59;99295.54;;;3.33;59.22
65010;BME280;51556;50.002;22.014;2023-02-03T10:51:32;99287.69;;;3.37;59.00
65010;BME280;51556;50.002;22.014;2023-02-03T10:53:59;99277.10;;;3.48;59.50
65010;BME280;51556;50.002;22.014;2023-02-03T10:56:30;99271.38;;;3.57;59.12
65010;BME280;51556;50.002;22.014;2023-02-03T10:58:59;99264.42;;;3.61;57.52
65010;BME280;51556;50.002;22.014;2023-02-03T11:01:39;99256.23;;;3.53;56.60
65010;BME280;51556;50.002;22.014;2023-02-03T11:04:23;99249.45;;;3.55;57.34
65010;BME280;51556;50.002;22.014;2023-02-03T11:06:57;99237.09;;;3.59;56.93
65010;BME280;51556;50.002;22.014;2023-02-03T11:09:39;99229.42;;;3.59;56.10
65010;BME280;51556;50.002;22.014;2023-02-03T11:14:36;99217.25;;;3.60;56.70
65010;BME280;51556;50.002;22.014;2023-02-03T11:17:08;99208.55;;;3.67;57.12
65010;BME280;51556;50.002;22.014;2023-02-03T11:19:38;99207.68;;;3.69;56.97
65010;BME280;51556;50.002;22.014;2023-02-03T11:22:04;99200.70;;;3.72;56.63
65010;BME280;51556;50.002;22.014;2023-02-03T11:24:32;99193.56;;;3.72;55.94
65010;BME280;51556;50.002;22.014;2023-02-03T11:27:14;99184.50;;;3.76;56.99
65010;BME280;51556;50.002;22.014;2023-02-03T11:29:45;99176.31;;;3.81;55.99
65010;BME280;51556;50.002;22.014;2023-02-03T11:34:57;99171.44;;;3.80;56.02
65010;BME280;51556;50.002;22.014;2023-02-03T11:43:15;99149.85;;;3.77;55.55
65010;BME280;51556;50.002;22.014;2023-02-03T11:45:43;99141.33;;;3.78;55.43
65010;BME280;51556;50.002;22.014;2023-02-03T11:48:23;99131.04;;;3.87;56.32
65010;BME280;51556;50.002;22.014;2023-02-03T11:56:55;99102.44;;;4.01;54.71
65010;BME280;51556;50.002;22.014;2023-02-03T12:12:53;99047.67;;;3.75;54.45
65010;BME280;51556;50.002;22.014;2023-02-03T12:27:09;99001.83;;;3.88;55.34
65010;BME280;51556;50.002;22.014;2023-02-03T12:29:36;98993.62;;;3.93;55.34
65010;BME280;51556;50.002;22.014;2023-02-03T12:35:47;98979.85;;;3.98;54.85
65010;BME280;51556;50.002;22.014;2023-02-03T12:41:13;98957.11;;;4.13;54.78
65010;BME280;51556;50.002;22.014;2023-02-03T12:43:44;98952.42;;;4.10;53.77
65010;BME280;51556;50.002;22.014;2023-02-03T12:46:21;98941.35;;;4.01;53.21
65010;BME280;51556;50.002;22.014;2023-02-03T12:51:44;98930.05;;;3.98;54.11
65010;BME280;51556;50.002;22.014;2023-02-03T12:54:53;98919.77;;;3.97;54.38
65010;BME280;51556;50.002;22.014;2023-02-03T12:59:53;98901.48;;;3.97;54.32
65010;BME280;51556;50.002;22.014;2023-02-03T13:02:26;98897.50;;;3.95;53.89
65010;BME280;51556;50.002;22.014;2023-02-03T13:04:57;98886.91;;;3.89;54.18
65010;BME280;51556;50.002;22.014;2023-02-03T13:07:50;98878.73;;;3.90;55.16
65010;BME280;51556;50.002;22.014;2023-02-03T13:10:49;98871.39;;;3.93;54.94
65010;BME280;51556;50.002;22.014;2023-02-03T13:13:25;98865.48;;;3.92;54.27
65010;BME280;51556;50.002;22.014;2023-02-03T13:15:54;98858.71;;;3.87;54.37
65010;BME280;51556;50.002;22.014;2023-02-03T13:18:28;98853.17;;;3.82;53.76
65010;BME280;51556;50.002;22.014;2023-02-03T13:20:55;98850.05;;;3.80;54.30
65010;BME280;51556;50.002;22.014;2023-02-03T13:23:22;98843.95;;;3.79;54.57
65010;BME280;51556;50.002;22.014;2023-02-03T13:40:15;98791.59;;;3.51;54.56
65010;BME280;51556;50.002;22.014;2023-02-03T13:42:43;98783.80;;;3.44;53.97
65010;BME280;51556;50.002;22.014;2023-02-03T13:47:37;98777.45;;;3.32;54.93
65010;BME280;51556;50.002;22.014;2023-02-03T13:50:18;98772.08;;;3.30;55.05
65010;BME280;51556;50.002;22.014;2023-02-03T13:53:03;98761.61;;;3.33;55.21
65010;BME280;51556;50.002;22.014;2023-02-03T13:55:40;98747.05;;;3.25;55.13
65010;BME280;51556;50.002;22.014;2023-02-03T13:58:20;98745.35;;;3.19;55.69
65010;BME280;51556;50.002;22.014;2023-02-03T14:03:18;98730.95;;;3.12;55.68
65010;BME280;51556;50.002;22.014;2023-02-03T14:06:02;98718.61;;;3.11;56.07
65010;BME280;51556;50.002;22.014;2023-02-03T14:16:35;98697.95;;;3.04;56.53
65010;BME280;51556;50.002;22.014;2023-02-03T14:19:01;98693.86;;;2.95;55.26
65010;BME280;51556;50.002;22.014;2023-02-03T14:21:28;98690.92;;;2.92;54.92
65010;BME280;51556;50.002;22.014;2023-02-03T14:24:04;98681.58;;;2.85;54.89
65010;BME280;51556;50.002;22.014;2023-02-03T14:26:41;98670.81;;;2.80;55.75
65010;BME280;51556;50.002;22.014;2023-02-03T14:29:10;98668.25;;;2.70;55.89
65010;BME280;51556;50.002;22.014;2023-02-03T14:34:37;98651.38;;;2.42;58.56
65010;BME280;51556;50.002;22.014;2023-02-03T14:42:47;98633.20;;;2.26;60.90
65010;BME280;51556;50.002;22.014;2023-02-03T14:48:14;98615.67;;;2.22;61.72
65010;BME280;51556;50.002;22.014;2023-02-03T14:56:29;98593.34;;;2.10;63.06
65010;BME280;51556;50.002;22.014;2023-02-03T14:59:16;98585.38;;;2.02;63.30
65010;BME280;51556;50.002;22.014;2023-02-03T15:06:45;98560.33;;;1.73;65.44
65010;BME280;51556;50.002;22.014;2023-02-03T15:09:33;98562.06;;;1.70;66.17
65010;BME280;51556;50.002;22.014;2023-02-03T15:12:01;98548.05;;;1.58;67.20
65010;BME280;51556;50.002;22.014;2023-02-03T15:14:28;98539.57;;;1.49;68.09
65010;BME280;51556;50.002;22.014;2023-02-03T15:17:00;98538.34;;;1.51;67.45
65010;BME280;51556;50.002;22.014;2023-02-03T15:19:33;98529.84;;;1.52;67.93
65010;BME280;51556;50.002;22.014;2023-02-03T15:21:59;98526.20;;;1.53;67.91
65010;BME280;51556;50.002;22.014;2023-02-03T15:24:34;98522.03;;;1.53;68.32
65010;BME280;51556;50.002;22.014;2023-02-03T15:27:04;98516.13;;;1.55;67.98
65010;BME280;51556;50.002;22.014;2023-02-03T15:29:44;98509.56;;;1.51;68.93